Time;durP1;ratioP1;P1;durP2;ratioP2;P2;SDS_P1;SDS_P2;PMS_P1;PMS_P2;Temp;Humidity;BMP_temperature;BMP_pressure;BME280_temperature;BME280_humidity;BME280_pressure;Samples;Min_cycle;Max_cycle;Signal;HPM_P1;HPM_P2
2024/01/24 00:02:17;;;;;;;19.92;7.63;;;14.50;99.90;;;;;;5094548;28;20031;-69
2024/01/24 00:04:43;;;;;;;21.45;7.95;;;14.60;99.90;;;;;;5094275;28;20393;-69
2024/01/24 00:07:09;;;;;;;19.20;8.40;;;14.60;99.90;;;;;;5094344;28;20021;-69
2024/01/24 00:09:34;;;;;;;16.88;8.27;;;14.60;99.90;;;;;;5094572;28;20028;-68
2024/01/24 00:12:00;;;;;;;19.52;7.32;;;14.50;99.90;;;;;;5094453;28;20027;-68
2024/01/24 00:14:26;;;;;;;22.60;8.30;;;14.40;99.90;;;;;;5094819;28;20405;-69
2024/01/24 00:16:52;;;;;;;18.60;7.68;;;14.30;99.90;;;;;;5094268;28;20039;-68
2024/01/24 00:19:17;;;;;;;16.25;8.00;;;14.20;99.90;;;;;;5093779;28;20390;-68
2024/01/24 00:21:43;;;;;;;18.73;7.70;;;14.20;99.90;;;;;;5094223;28;20032;-68
2024/01/24 00:24:08;;;;;;;17.45;7.28;;;14.10;99.90;;;;;;5094648;28;20024;-68
2024/01/24 00:26:37;;;;;;;16.90;6.80;;;14.10;99.90;;;;;;5093990;28;20020;-69
2024/01/24 00:29:03;;;;;;;13.75;6.25;;;14.10;99.90;;;;;;5094024;28;20020;-68
2024/01/24 00:31:29;;;;;;;13.43;6.47;;;14.10;99.90;;;;;;5093862;28;20058;-68
2024/01/24 00:33:55;;;;;;;16.77;6.93;;;14.10;99.90;;;;;;5093787;28;20039;-68
2024/01/24 00:36:21;;;;;;;13.98;6.63;;;14.10;99.90;;;;;;5092346;28;20557;-69
2024/01/24 00:38:47;;;;;;;14.90;6.35;;;14.10;99.90;;;;;;5093848;28;20103;-68
2024/01/24 00:41:12;;;;;;;15.52;6.50;;;14.00;99.90;;;;;;5093651;28;20158;-68
2024/01/24 00:43:38;;;;;;;14.40;6.78;;;14.00;99.90;;;;;;5092768;28;20482;-69
2024/01/24 00:46:04;;;;;;;17.20;6.80;;;14.00;99.90;;;;;;5093772;28;20077;-68
2024/01/24 00:48:29;;;;;;;15.88;6.72;;;14.00;99.90;;;;;;5093227;28;20077;-68
2024/01/24 00:50:55;;;;;;;13.77;7.10;;;14.00;99.90;;;;;;5094087;28;20034;-68
2024/01/24 00:53:21;;;;;;;14.75;6.57;;;14.00;99.90;;;;;;5093629;28;20031;-69
2024/01/24 00:55:47;;;;;;;12.30;6.40;;;14.00;99.90;;;;;;5104888;28;20085;-68
2024/01/24 00:58:13;;;;;;;15.73;7.22;;;14.00;99.90;;;;;;5093641;28;20054;-67
2024/01/24 01:00:39;;;;;;;14.82;6.80;;;14.00;99.90;;;;;;5093259;28;20028;-68
2024/01/24 01:03:05;;;;;;;13.48;7.07;;;14.00;99.90;;;;;;5093578;28;20436;-68
2024/01/24 01:05:30;;;;;;;12.80;6.70;;;14.00;99.90;;;;;;5093369;28;20032;-68
2024/01/24 01:07:56;;;;;;;16.30;6.82;;;14.00;99.90;;;;;;5093176;28;20031;-68
2024/01/24 01:10:21;;;;;;;12.85;6.68;;;14.00;99.90;;;;;;5093460;28;20041;-68
2024/01/24 01:12:47;;;;;;;15.63;6.45;;;14.00;99.90;;;;;;5092930;28;20038;-68
2024/01/24 01:15:13;;;;;;;13.75;6.05;;;14.00;99.90;;;;;;5093105;28;20039;-68
2024/01/24 01:17:38;;;;;;;14.15;6.22;;;14.00;99.90;;;;;;5092720;28;20020;-68
2024/01/24 01:20:05;;;;;;;15.40;6.80;;;14.00;99.90;;;;;;5093056;28;20024;-68
2024/01/24 01:22:31;;;;;;;15.27;5.90;;;14.00;99.90;;;;;;5093234;28;20051;-69
2024/01/24 01:24:56;;;;;;;18.23;6.80;;;14.00;99.90;;;;;;5093642;28;20052;-68
2024/01/24 01:27:22;;;;;;;13.38;5.88;;;14.10;99.90;;;;;;5092879;28;20031;-68
2024/01/24 01:29:49;;;;;;;14.02;6.30;;;14.20;99.90;;;;;;5092823;28;20107;-69
2024/01/24 01:32:14;;;;;;;13.85;5.70;;;14.30;99.90;;;;;;5092645;28;20043;-68
2024/01/24 01:34:40;;;;;;;13.38;6.30;;;14.50;99.90;;;;;;5093414;28;20090;-69
2024/01/24 01:37:06;;;;;;;12.52;6.30;;;14.60;99.90;;;;;;5092616;28;20025;-69
2024/01/24 01:39:32;;;;;;;14.32;5.88;;;14.60;99.90;;;;;;5092667;28;20067;-69
2024/01/24 01:41:58;;;;;;;11.35;5.45;;;14.60;99.90;;;;;;5092999;28;20119;-69
2024/01/24 01:44:24;;;;;;;15.55;6.57;;;14.60;99.90;;;;;;5092895;28;20454;-68
2024/01/24 01:46:52;;;;;;;11.82;5.78;;;14.60;99.90;;;;;;5092335;28;20024;-69
2024/01/24 01:49:19;;;;;;;11.73;5.80;;;14.50;99.90;;;;;;5092595;28;20052;-68
2024/01/24 01:51:45;;;;;;;14.85;5.68;;;14.40;99.90;;;;;;5092608;28;20085;-68
2024/01/24 01:54:13;;;;;;;14.18;5.88;;;14.30;99.90;;;;;;5092923;28;20020;-68
2024/01/24 01:56:39;;;;;;;12.75;5.85;;;14.30;99.90;;;;;;5092126;28;20073;-68
2024/01/24 01:59:06;;;;;;;14.18;6.20;;;14.20;99.90;;;;;;5092498;28;20383;-68
2024/01/24 02:01:32;;;;;;;13.50;6.85;;;14.20;99.90;;;;;;5092309;28;20040;-68
2024/01/24 02:03:59;;;;;;;14.27;6.60;;;14.10;99.90;;;;;;5092341;28;20193;-68
2024/01/24 02:06:25;;;;;;;14.60;6.50;;;14.10;99.90;;;;;;5092395;28;20024;-68
2024/01/24 02:08:51;;;;;;;12.80;6.05;;;14.10;99.90;;;;;;5092199;28;20024;-68
2024/01/24 02:11:17;;;;;;;11.32;5.90;;;14.00;99.90;;;;;;5092316;28;20016;-68
2024/01/24 02:13:43;;;;;;;12.40;5.80;;;14.10;99.90;;;;;;5092470;28;20019;-68
2024/01/24 02:16:13;;;;;;;11.43;5.47;;;14.00;99.90;;;;;;5092010;28;20432;-68
2024/01/24 02:18:41;;;;;;;11.90;5.10;;;14.00;99.90;;;;;;5092141;28;20024;-68
2024/01/24 02:21:07;;;;;;;13.23;6.22;;;14.00;99.90;;;;;;5091987;28;20111;-68
2024/01/24 02:23:32;;;;;;;11.82;5.60;;;14.00;99.90;;;;;;5092192;28;20142;-68
2024/01/24 02:25:58;;;;;;;11.75;5.18;;;14.00;99.90;;;;;;5092120;28;20044;-68
2024/01/24 02:28:24;;;;;;;10.00;5.28;;;14.00;99.90;;;;;;5092285;28;20452;-68
2024/01/24 02:30:49;;;;;;;12.70;5.97;;;14.00;99.90;;;;;;5091803;28;20024;-68
2024/01/24 02:33:15;;;;;;;12.15;5.18;;;14.00;99.90;;;;;;5091900;28;20024;-68
2024/01/24 02:35:41;;;;;;;9.43;5.05;;;14.00;99.90;;;;;;5091899;28;20032;-68
2024/01/24 02:38:06;;;;;;;11.75;5.95;;;14.00;99.90;;;;;;5092113;28;20028;-68
2024/01/24 02:40:32;;;;;;;13.05;5.55;;;13.90;99.90;;;;;;5091811;28;20052;-68
2024/01/24 02:42:58;;;;;;;13.10;5.55;;;13.90;99.90;;;;;;5092021;28;20028;-68
2024/01/24 02:45:23;;;;;;;13.38;5.15;;;13.90;99.90;;;;;;5091597;28;20028;-68
2024/01/24 02:47:49;;;;;;;10.57;5.45;;;13.90;99.90;;;;;;5091656;28;20024;-68
2024/01/24 02:50:16;;;;;;;10.07;5.00;;;13.90;99.90;;;;;;5092376;28;20032;-68
2024/01/24 02:52:42;;;;;;;12.82;5.57;;;13.90;99.90;;;;;;5091729;28;20099;-68
2024/01/24 02:55:07;;;;;;;10.73;5.43;;;13.90;99.90;;;;;;5092617;28;20124;-68
2024/01/24 02:57:33;;;;;;;12.88;5.88;;;13.90;99.90;;;;;;5098691;28;20543;-68
2024/01/24 02:59:59;;;;;;;10.70;5.57;;;13.90;99.90;;;;;;5091029;28;20058;-68
2024/01/24 03:02:25;;;;;;;10.63;5.60;;;13.90;99.90;;;;;;5091703;28;20043;-68
2024/01/24 03:04:50;;;;;;;12.07;5.65;;;14.00;99.90;;;;;;5091974;28;20028;-69
2024/01/24 03:07:16;;;;;;;10.73;5.90;;;14.10;99.90;;;;;;5091695;28;20024;-69
2024/01/24 03:09:42;;;;;;;11.57;5.15;;;14.30;99.90;;;;;;5096062;28;20117;-69
2024/01/24 03:12:07;;;;;;;10.45;4.88;;;14.30;99.90;;;;;;5095489;28;20027;-68
2024/01/24 03:14:33;;;;;;;11.10;4.93;;;14.40;99.90;;;;;;5095149;28;20036;-69
2024/01/24 03:16:59;;;;;;;11.60;5.35;;;14.50;99.90;;;;;;5095797;28;20016;-68
2024/01/24 03:19:24;;;;;;;13.98;4.97;;;14.50;99.90;;;;;;5095333;28;20031;-69
2024/01/24 03:21:50;;;;;;;13.60;5.43;;;14.50;99.90;;;;;;5095533;28;20016;-68
2024/01/24 03:24:17;;;;;;;10.73;5.32;;;14.50;99.90;;;;;;5095369;28;20115;-68
2024/01/24 03:26:42;;;;;;;11.13;5.10;;;14.50;99.90;;;;;;5095178;28;20020;-68
2024/01/24 03:29:08;;;;;;;9.52;4.93;;;14.40;99.90;;;;;;5094933;28;20389;-68
2024/01/24 03:31:34;;;;;;;11.27;4.90;;;14.30;99.90;;;;;;5095637;28;20020;-68
2024/01/24 03:34:00;;;;;;;12.65;5.05;;;14.20;99.90;;;;;;5095246;28;20032;-68
2024/01/24 03:36:25;;;;;;;10.07;5.05;;;14.20;99.90;;;;;;5094862;28;20032;-68
2024/01/24 03:38:51;;;;;;;13.23;5.40;;;14.10;99.90;;;;;;5095111;28;20436;-68
2024/01/24 03:41:16;;;;;;;13.75;5.78;;;14.00;99.90;;;;;;5095039;28;20160;-68
2024/01/24 03:43:42;;;;;;;12.05;5.43;;;13.90;99.90;;;;;;5094592;28;20493;-68
2024/01/24 03:46:08;;;;;;;10.68;5.25;;;14.00;99.90;;;;;;5095089;28;20050;-68
2024/01/24 03:48:34;;;;;;;14.13;5.90;;;13.90;99.90;;;;;;5095339;28;20240;-68
2024/01/24 03:51:00;;;;;;;14.13;5.60;;;13.90;99.90;;;;;;5094963;28;20569;-68
2024/01/24 03:53:26;;;;;;;11.90;5.28;;;13.90;99.90;;;;;;5095037;28;20048;-68
2024/01/24 03:55:52;;;;;;;11.48;5.00;;;13.90;99.90;;;;;;5094770;28;20492;-68
2024/01/24 03:58:18;;;;;;;14.32;5.50;;;13.90;99.90;;;;;;5094451;28;20036;-68
2024/01/24 04:00:44;;;;;;;11.63;5.13;;;13.80;99.90;;;;;;5095076;28;20028;-68
2024/01/24 04:03:10;;;;;;;13.75;5.78;;;13.80;99.90;;;;;;5094640;28;20383;-68
2024/01/24 04:05:36;;;;;;;11.13;5.45;;;13.80;99.90;;;;;;5094637;28;20144;-68
2024/01/24 04:08:02;;;;;;;10.50;5.18;;;13.80;99.90;;;;;;5094432;28;20405;-68
2024/01/24 04:10:28;;;;;;;10.85;5.20;;;13.80;99.90;;;;;;5094763;28;20016;-67
2024/01/24 04:12:53;;;;;;;11.10;6.07;;;13.80;99.90;;;;;;5094307;28;20051;-68
2024/01/24 04:15:19;;;;;;;14.98;6.28;;;13.80;99.90;;;;;;5094405;28;20071;-68
2024/01/24 04:17:44;;;;;;;11.70;5.80;;;13.80;99.90;;;;;;5094127;28;20463;-68
2024/01/24 04:20:10;;;;;;;10.38;5.70;;;13.80;99.90;;;;;;5094245;28;20047;-68
2024/01/24 04:22:36;;;;;;;12.13;6.05;;;13.80;99.90;;;;;;5094225;28;20032;-68
2024/01/24 04:25:02;;;;;;;13.82;6.00;;;13.80;99.90;;;;;;5094280;28;20055;-68
2024/01/24 04:27:27;;;;;;;11.95;6.05;;;13.80;99.90;;;;;;5094194;28;20115;-68
2024/01/24 04:29:53;;;;;;;13.90;6.05;;;13.80;99.90;;;;;;5094090;28;20032;-68
2024/01/24 04:32:19;;;;;;;11.02;5.45;;;13.80;99.90;;;;;;5094092;28;20489;-67
2024/01/24 04:34:45;;;;;;;10.73;5.88;;;13.80;99.90;;;;;;5094340;28;20027;-67
2024/01/24 04:37:11;;;;;;;13.70;6.38;;;13.80;99.90;;;;;;5093827;28;20040;-68
2024/01/24 04:39:37;;;;;;;14.55;6.50;;;13.80;99.90;;;;;;5093775;28;20072;-68
2024/01/24 04:42:03;;;;;;;13.73;6.30;;;13.90;99.90;;;;;;5093545;28;20482;-68
2024/01/24 04:44:30;;;;;;;16.17;6.25;;;14.00;99.90;;;;;;5094087;28;20024;-67
2024/01/24 04:46:55;;;;;;;13.63;6.63;;;14.10;99.90;;;;;;5093764;28;20024;-68
2024/01/24 04:49:21;;;;;;;14.45;6.63;;;14.20;99.90;;;;;;5093704;28;20032;-68
2024/01/24 04:51:48;;;;;;;13.38;6.32;;;14.20;99.90;;;;;;5093735;28;20103;-68
2024/01/24 04:54:15;;;;;;;14.68;6.38;;;14.30;99.90;;;;;;5094440;28;20455;-66
2024/01/24 04:56:46;;;;;;;14.30;5.95;;;14.30;99.90;;;;;;5110812;28;20024;-68
2024/01/24 04:59:15;;;;;;;14.40;6.80;;;14.40;99.90;;;;;;5093519;28;20028;-68
2024/01/24 05:01:44;;;;;;;16.55;6.97;;;14.40;99.90;;;;;;5093533;28;20058;-68
2024/01/24 05:04:10;;;;;;;17.33;6.40;;;14.30;99.90;;;;;;5093892;28;20103;-68
2024/01/24 05:06:37;;;;;;;16.35;6.65;;;14.20;99.90;;;;;;5092842;28;20107;-68
2024/01/24 05:09:02;;;;;;;18.75;6.97;;;14.10;99.90;;;;;;5093043;28;21038;-68
2024/01/24 05:11:28;;;;;;;17.50;6.75;;;14.00;99.90;;;;;;5093217;28;20035;-68
2024/01/24 05:13:59;;;;;;;17.63;6.93;;;14.00;99.90;;;;;;5092846;28;20028;-69
2024/01/24 05:16:25;;;;;;;21.17;7.72;;;13.90;99.90;;;;;;5092989;28;20089;-68
2024/01/24 05:18:51;;;;;;;17.55;6.82;;;13.90;99.90;;;;;;5093497;28;20020;-68
2024/01/24 05:21:16;;;;;;;17.60;6.68;;;13.90;99.90;;;;;;5092938;28;20024;-68
2024/01/24 05:23:42;;;;;;;19.10;7.00;;;13.80;99.90;;;;;;5091056;28;20024;-68
2024/01/24 05:26:09;;;;;;;15.30;6.68;;;13.80;99.90;;;;;;5093489;28;20039;-68
2024/01/24 05:28:34;;;;;;;17.40;6.80;;;13.80;99.90;;;;;;5092877;28;20016;-68
2024/01/24 05:31:00;;;;;;;15.75;6.40;;;13.80;99.90;;;;;;5091163;28;20084;-68
2024/01/24 05:33:26;;;;;;;17.25;7.00;;;13.80;99.90;;;;;;5093086;28;20031;-68
2024/01/24 05:35:52;;;;;;;15.18;5.88;;;13.80;99.90;;;;;;5093135;28;20032;-67
2024/01/24 05:38:17;;;;;;;11.85;5.70;;;13.80;99.90;;;;;;5092390;28;20452;-67
2024/01/24 05:40:43;;;;;;;13.20;5.72;;;13.70;99.90;;;;;;5092734;28;20048;-67
2024/01/24 05:43:09;;;;;;;13.73;5.80;;;13.70;99.90;;;;;;5092851;28;20100;-67
2024/01/24 05:45:34;;;;;;;13.60;6.00;;;13.70;99.90;;;;;;5092675;28;20038;-68
2024/01/24 05:48:00;;;;;;;12.98;5.38;;;13.70;99.90;;;;;;5092669;28;20020;-68
2024/01/24 05:50:26;;;;;;;11.75;5.70;;;13.70;99.90;;;;;;5092863;28;20038;-68
2024/01/24 05:52:52;;;;;;;12.50;5.40;;;13.70;99.90;;;;;;5092597;28;20023;-68
2024/01/24 05:55:18;;;;;;;12.77;5.75;;;13.70;99.90;;;;;;5092442;28;20488;-68
2024/01/24 05:57:46;;;;;;;12.55;5.53;;;13.70;99.90;;;;;;5092351;28;20512;-68
2024/01/24 06:00:15;;;;;;;13.80;5.60;;;13.70;99.90;;;;;;5092874;28;20039;-68
2024/01/24 06:02:41;;;;;;;12.52;5.32;;;13.70;99.90;;;;;;5092558;28;20035;-68
2024/01/24 06:05:09;;;;;;;11.32;5.43;;;13.70;99.90;;;;;;5089415;28;20032;-69
2024/01/24 06:07:36;;;;;;;13.20;5.65;;;13.70;99.90;;;;;;5088484;28;20024;-69
2024/01/24 06:10:01;;;;;;;13.52;6.18;;;13.70;99.90;;;;;;5092357;28;20087;-69
2024/01/24 06:12:27;;;;;;;13.25;6.35;;;13.60;99.90;;;;;;5092299;28;20043;-69
2024/01/24 06:14:56;;;;;;;12.00;6.07;;;13.70;99.90;;;;;;5092173;28;20035;-68
2024/01/24 06:17:22;;;;;;;12.05;5.72;;;13.70;99.90;;;;;;5091904;28;20551;-69
2024/01/24 06:19:50;;;;;;;12.68;5.80;;;13.80;99.90;;;;;;5091908;28;20056;-71
2024/01/24 06:22:16;;;;;;;14.25;6.35;;;13.90;99.90;;;;;;5091777;28;20444;-69
2024/01/24 06:24:42;;;;;;;12.45;6.10;;;14.10;99.90;;;;;;5092045;28;20125;-68
2024/01/24 06:27:08;;;;;;;11.38;5.88;;;14.10;99.90;;;;;;5092158;28;20020;-68
2024/01/24 06:29:34;;;;;;;14.00;5.72;;;14.10;99.90;;;;;;5091478;28;20032;-68
2024/01/24 06:32:00;;;;;;;13.02;6.28;;;14.20;99.90;;;;;;5087963;28;20035;-69
2024/01/24 06:34:26;;;;;;;13.63;5.88;;;14.30;99.90;;;;;;5086459;28;20115;-69
2024/01/24 06:36:52;;;;;;;11.63;5.78;;;14.30;99.90;;;;;;5091013;28;20103;-68
2024/01/24 06:39:18;;;;;;;13.43;6.25;;;14.20;99.90;;;;;;5091407;28;20158;-68
2024/01/24 06:41:44;;;;;;;13.10;5.75;;;14.20;99.90;;;;;;5090039;28;20036;-69
2024/01/24 06:44:10;;;;;;;14.90;6.40;;;14.10;99.90;;;;;;5096477;28;20055;-69
2024/01/24 06:46:42;;;;;;;15.98;6.70;;;14.00;99.90;;;;;;5095627;28;20016;-68
2024/01/24 06:49:10;;;;;;;16.17;6.53;;;13.90;99.90;;;;;;5095767;28;20031;-69
2024/01/24 06:51:38;;;;;;;18.67;6.97;;;13.90;99.90;;;;;;5095951;28;20110;-68
2024/01/24 06:54:07;;;;;;;16.55;6.60;;;13.80;99.90;;;;;;5105935;28;20020;-68
2024/01/24 06:56:33;;;;;;;17.10;6.90;;;13.80;99.90;;;;;;5116181;28;20031;-69
2024/01/24 06:58:59;;;;;;;17.80;6.43;;;13.70;99.90;;;;;;5096127;28;20455;-69
2024/01/24 07:01:26;;;;;;;18.77;7.13;;;13.70;99.90;;;;;;5095625;28;20032;-69
2024/01/24 07:03:52;;;;;;;17.20;7.20;;;13.70;99.90;;;;;;5095544;28;20028;-68
2024/01/24 07:06:18;;;;;;;14.27;6.65;;;13.70;99.90;;;;;;5095820;28;20028;-69
2024/01/24 07:08:44;;;;;;;19.48;7.07;;;13.70;99.90;;;;;;5095295;28;20028;-69
2024/01/24 07:11:10;;;;;;;20.30;6.97;;;13.70;99.90;;;;;;5095010;28;20035;-69
2024/01/24 07:13:37;;;;;;;16.35;7.07;;;13.60;99.90;;;;;;5095232;28;20032;-69
2024/01/24 07:16:04;;;;;;;21.60;7.50;;;13.70;99.90;;;;;;5094676;28;20521;-69
2024/01/24 07:18:34;;;;;;;20.40;8.07;;;13.70;99.90;;;;;;5094529;28;20016;-69
2024/01/24 07:21:00;;;;;;;18.23;7.78;;;13.60;99.90;;;;;;5094615;28;20420;-68
2024/01/24 07:23:26;;;;;;;18.15;7.82;;;13.60;99.90;;;;;;5095062;28;20501;-69
2024/01/24 07:25:52;;;;;;;19.67;8.27;;;13.60;99.90;;;;;;5095208;28;20032;-69
2024/01/24 07:28:18;;;;;;;20.73;8.43;;;13.60;99.90;;;;;;5095389;28;20069;-69
2024/01/24 07:30:44;;;;;;;18.92;8.02;;;13.60;99.90;;;;;;5095283;28;20389;-67
2024/01/24 07:33:10;;;;;;;21.50;8.32;;;13.60;99.90;;;;;;5094231;28;20489;-67
2024/01/24 07:35:35;;;;;;;19.02;8.60;;;13.60;99.90;;;;;;5094954;28;20039;-67
2024/01/24 07:38:01;;;;;;;21.42;8.70;;;13.60;99.90;;;;;;5094948;28;20027;-67
2024/01/24 07:40:27;;;;;;;22.05;9.02;;;13.60;99.90;;;;;;5094856;28;20502;-67
2024/01/24 07:42:52;;;;;;;23.17;9.35;;;13.60;99.90;;;;;;5095483;28;20091;-67
2024/01/24 07:45:18;;;;;;;20.95;9.18;;;13.60;99.90;;;;;;5094980;28;20093;-67
2024/01/24 07:47:45;;;;;;;18.67;9.15;;;13.60;99.90;;;;;;5087701;28;20035;-67
2024/01/24 07:50:13;;;;;;;19.85;9.15;;;13.60;99.90;;;;;;5093045;28;20047;-67
2024/01/24 07:52:40;;;;;;;21.70;9.05;;;13.60;99.90;;;;;;5094530;28;20047;-67
2024/01/24 07:55:05;;;;;;;21.25;8.55;;;13.70;99.90;;;;;;5094806;28;20032;-66
2024/01/24 07:57:31;;;;;;;1999.90;715.10;;;13.80;99.90;;;;;;5094423;28;20024;-67
2024/01/24 07:59:58;;;;;;;942.88;122.38;;;14.10;99.90;;;;;;5095069;28;20020;-67
2024/01/24 08:02:23;;;;;;;285.80;37.88;;;14.30;99.90;;;;;;5093049;28;20035;-67
2024/01/24 08:04:50;;;;;;;84.68;14.23;;;14.30;99.90;;;;;;5094298;28;20028;-67
2024/01/24 08:07:15;;;;;;;1403.60;203.70;;;14.40;99.90;;;;;;5094276;28;20057;-67
2024/01/24 08:09:41;;;;;;;524.70;61.65;;;14.50;99.90;;;;;;5094798;28;20382;-67
2024/01/24 08:12:07;;;;;;;115.95;17.27;;;14.60;99.90;;;;;;5087779;28;20032;-67
2024/01/24 08:14:33;;;;;;;39.28;9.88;;;14.60;99.90;;;;;;5094300;28;20602;-67
2024/01/24 08:17:11;;;;;;;23.63;8.70;;;14.40;99.90;;;;;;5094443;28;20054;-67
2024/01/24 08:19:38;;;;;;;22.25;8.50;;;14.20;99.90;;;;;;5094035;28;20016;-67
2024/01/24 08:22:04;;;;;;;20.73;8.25;;;14.10;99.90;;;;;;5094406;28;20032;-69
2024/01/24 08:24:30;;;;;;;1999.90;444.77;;;14.10;99.90;;;;;;5094630;28;20024;-67
2024/01/24 08:26:56;;;;;;;536.85;66.75;;;14.10;99.90;;;;;;5092802;28;20397;-67
2024/01/24 08:29:25;;;;;;;173.02;26.23;;;14.00;99.90;;;;;;5093884;28;20016;-67
2024/01/24 08:31:51;;;;;;;56.05;13.07;;;13.90;99.90;;;;;;5093851;28;20028;-66
2024/01/24 08:34:17;;;;;;;27.38;9.73;;;13.90;99.90;;;;;;5093118;28;20029;-67
2024/01/24 08:36:43;;;;;;;26.95;8.95;;;13.90;99.90;;;;;;5093856;28;20110;-67
2024/01/24 08:39:10;;;;;;;20.45;9.10;;;13.90;99.90;;;;;;5093973;28;20109;-67
2024/01/24 08:41:36;;;;;;;23.90;8.93;;;13.90;99.90;;;;;;5093759;28;20052;-67
2024/01/24 08:44:02;;;;;;;1999.90;859.65;;;13.90;99.90;;;;;;5093842;28;20322;-67
2024/01/24 08:46:28;;;;;;;866.65;121.45;;;14.00;99.90;;;;;;5093460;28;20020;-66
2024/01/24 08:48:53;;;;;;;509.00;63.75;;;14.00;99.90;;;;;;5094122;28;20500;-67
2024/01/24 08:51:21;;;;;;;1999.90;290.27;;;14.10;99.90;;;;;;5093544;28;20651;-67
2024/01/24 08:53:46;;;;;;;270.17;39.17;;;14.20;99.90;;;;;;5093560;28;20482;-66
2024/01/24 08:56:12;;;;;;;80.60;17.48;;;14.10;99.90;;;;;;5093832;28;20039;-67
2024/01/24 08:58:38;;;;;;;36.50;11.55;;;14.00;99.90;;;;;;5102342;28;20516;-67
2024/01/24 09:01:04;;;;;;;44.45;11.10;;;14.00;99.90;;;;;;5113587;28;20030;-66
2024/01/24 09:03:30;;;;;;;22.85;8.90;;;14.10;99.90;;;;;;5113111;28;20027;-67
2024/01/24 09:05:55;;;;;;;23.25;9.43;;;14.10;99.90;;;;;;5092905;28;20081;-67
2024/01/24 09:08:21;;;;;;;19.08;8.85;;;14.10;99.90;;;;;;5093180;28;20024;-67
2024/01/24 09:10:47;;;;;;;19.40;8.80;;;14.10;99.90;;;;;;5093376;28;20024;-67
2024/01/24 09:13:12;;;;;;;20.35;9.05;;;14.10;99.90;;;;;;5090532;28;20119;-67
2024/01/24 09:15:39;;;;;;;22.10;9.35;;;14.10;99.90;;;;;;5091216;28;20360;-67
2024/01/24 09:18:06;;;;;;;24.88;9.18;;;14.10;99.90;;;;;;5093131;28;20028;-67
2024/01/24 09:20:32;;;;;;;22.23;9.80;;;14.10;99.90;;;;;;5093185;28;20039;-67
2024/01/24 09:22:58;;;;;;;19.92;9.70;;;14.10;99.90;;;;;;5093285;28;20020;-67
2024/01/24 09:25:24;;;;;;;19.13;8.50;;;14.20;99.90;;;;;;5091861;28;20043;-67
2024/01/24 09:27:50;;;;;;;19.15;9.80;;;14.20;99.90;;;;;;5092879;28;20024;-67
2024/01/24 09:30:15;;;;;;;20.83;9.95;;;14.20;99.90;;;;;;5092806;28;20081;-67
2024/01/24 09:32:41;;;;;;;19.58;9.68;;;14.30;99.90;;;;;;5092987;28;20023;-67
2024/01/24 09:35:07;;;;;;;20.45;10.18;;;14.50;99.90;;;;;;5091290;28;20105;-67
2024/01/24 09:37:33;;;;;;;22.20;10.15;;;14.60;99.90;;;;;;5093017;28;20027;-67
2024/01/24 09:39:59;;;;;;;19.20;9.52;;;14.70;99.90;;;;;;5084241;28;20076;-67
2024/01/24 09:42:26;;;;;;;18.85;9.70;;;14.80;99.90;;;;;;5081130;28;20117;-67
2024/01/24 09:44:52;;;;;;;15.38;9.15;;;14.90;99.90;;;;;;5091221;28;20067;-67
2024/01/24 09:47:23;;;;;;;17.35;9.73;;;14.90;99.90;;;;;;5092547;28;20012;-67
2024/01/24 09:49:50;;;;;;;17.65;9.23;;;15.00;99.90;;;;;;5091058;28;20024;-67
2024/01/24 09:52:24;;;;;;;17.35;9.00;;;15.00;99.90;;;;;;5092655;28;20056;-67
2024/01/24 09:54:55;;;;;;;14.85;9.07;;;14.90;99.90;;;;;;5092591;28;20051;-67
2024/01/24 09:57:22;;;;;;;18.88;9.70;;;14.90;99.90;;;;;;5092741;28;20024;-67
2024/01/24 09:59:48;;;;;;;16.70;8.82;;;14.80;99.90;;;;;;5091918;28;20046;-67
2024/01/24 10:02:14;;;;;;;16.02;8.80;;;14.80;99.90;;;;;;5092488;28;20028;-67
2024/01/24 10:04:43;;;;;;;13.82;8.65;;;14.80;99.90;;;;;;5092373;28;20032;-66
2024/01/24 10:07:10;;;;;;;18.63;8.35;;;14.80;99.90;;;;;;5092477;28;20055;-67
2024/01/24 10:09:36;;;;;;;17.58;9.45;;;14.80;99.90;;;;;;5092409;28;20024;-67
2024/01/24 10:12:03;;;;;;;15.52;8.38;;;14.80;99.90;;;;;;5092412;28;20103;-67
2024/01/24 10:14:29;;;;;;;16.20;8.82;;;14.80;99.90;;;;;;5092266;28;20470;-67
2024/01/24 10:16:56;;;;;;;17.60;8.82;;;14.80;99.90;;;;;;5086601;28;20039;-67
2024/01/24 10:19:25;;;;;;;17.60;8.80;;;14.90;99.90;;;;;;5087981;28;20036;-67
2024/01/24 10:21:52;;;;;;;16.33;8.95;;;14.90;99.90;;;;;;5092081;28;20056;-66
2024/01/24 10:24:18;;;;;;;15.63;8.38;;;14.90;99.90;;;;;;5083149;28;20564;-67
2024/01/24 10:26:47;;;;;;;14.80;9.00;;;14.90;99.90;;;;;;5072139;28;20436;-67
2024/01/24 10:29:13;;;;;;;13.60;8.35;;;14.90;99.90;;;;;;5090369;28;20024;-67
2024/01/24 10:31:38;;;;;;;19.00;10.20;;;15.00;99.90;;;;;;5092026;28;20077;-67
2024/01/24 10:34:06;;;;;;;17.75;9.73;;;15.00;99.90;;;;;;5091870;28;20024;-67
2024/01/24 10:36:32;;;;;;;24.40;13.02;;;15.00;99.90;;;;;;5091510;28;20036;-66
2024/01/24 10:39:02;;;;;;;26.77;16.63;;;15.00;99.90;;;;;;5091552;28;20028;-67
2024/01/24 10:41:31;;;;;;;22.23;13.75;;;15.00;99.90;;;;;;5091146;28;20063;-68
2024/01/24 10:44:01;;;;;;;17.42;10.40;;;15.10;99.90;;;;;;5091508;28;20103;-67
2024/01/24 10:46:28;;;;;;;19.10;11.05;;;15.10;99.90;;;;;;5091709;28;20028;-67
2024/01/24 10:48:54;;;;;;;26.08;14.68;;;15.10;99.90;;;;;;5092219;28;20455;-68
2024/01/24 10:51:20;;;;;;;14.40;8.27;;;15.10;99.90;;;;;;5091894;28;20188;-67
2024/01/24 10:53:48;;;;;;;12.70;7.32;;;15.10;99.90;;;;;;5091811;28;20031;-67
2024/01/24 10:56:15;;;;;;;12.13;6.88;;;15.20;99.90;;;;;;5091546;28;20046;-67
2024/01/24 10:58:42;;;;;;;13.45;7.85;;;15.20;99.90;;;;;;5099222;28;20027;-67
2024/01/24 11:01:08;;;;;;;15.20;8.40;;;15.20;99.90;;;;;;5112095;28;20043;-67
2024/01/24 11:03:34;;;;;;;13.10;7.55;;;15.30;99.90;;;;;;5112266;28;20482;-67
2024/01/24 11:06:05;;;;;;;11.82;7.13;;;15.30;99.90;;;;;;5111647;28;20103;-68
2024/01/24 11:08:38;;;;;;;13.93;7.78;;;15.40;99.90;;;;;;5099092;28;20032;-68
2024/01/24 11:11:09;;;;;;;13.85;7.32;;;15.50;99.90;;;;;;5091472;28;20050;-67
2024/01/24 11:13:35;;;;;;;15.52;7.80;;;15.70;99.90;;;;;;5091366;28;20161;-67
2024/01/24 11:16:24;;;;;;;12.30;7.32;;;15.80;99.90;;;;;;5091306;28;20070;-67
2024/01/24 11:18:49;;;;;;;12.73;7.22;;;15.90;99.90;;;;;;5086954;28;20103;-67
2024/01/24 11:21:20;;;;;;;11.70;7.53;;;15.90;99.90;;;;;;5091557;28;20546;-70
2024/01/24 11:23:48;;;;;;;10.52;6.82;;;16.00;99.90;;;;;;5091429;28;20031;-68
2024/01/24 11:26:17;;;;;;;11.93;6.22;;;16.10;99.90;;;;;;5091403;28;20020;-67
2024/01/24 11:28:43;;;;;;;12.00;5.63;;;16.10;99.90;;;;;;5092977;28;20020;-67
2024/01/24 11:31:10;;;;;;;10.80;5.60;;;16.10;99.90;;;;;;5095589;28;20436;-67
2024/01/24 11:33:36;;;;;;;12.90;5.63;;;16.00;99.90;;;;;;5095291;28;20496;-67
2024/01/24 11:36:05;;;;;;;9.80;5.30;;;16.00;99.90;;;;;;5095069;28;20120;-67
2024/01/24 11:38:35;;;;;;;11.10;5.43;;;15.90;99.90;;;;;;5094907;28;20043;-67
2024/01/24 11:41:26;;;;;;;9.20;5.10;;;15.90;99.90;;;;;;5093543;28;20447;-68
2024/01/24 11:43:52;;;;;;;11.93;5.38;;;15.90;99.90;;;;;;5088934;28;20024;-67
2024/01/24 11:46:22;;;;;;;12.50;6.00;;;15.80;99.90;;;;;;5094934;28;20065;-67
2024/01/24 11:48:48;;;;;;;13.10;7.40;;;15.80;99.90;;;;;;5095254;28;20142;-67
2024/01/24 11:51:16;;;;;;;12.75;6.13;;;15.80;99.90;;;;;;5094764;28;20525;-67
2024/01/24 11:53:41;;;;;;;13.95;6.03;;;15.80;99.90;;;;;;5094789;28;20032;-67
2024/01/24 11:56:17;;;;;;;11.27;6.22;;;15.80;99.90;;;;;;5094585;28;20462;-66
2024/01/24 11:58:43;;;;;;;9.43;5.55;;;15.80;99.90;;;;;;5094594;28;20494;-66
2024/01/24 12:01:13;;;;;;;14.50;6.30;;;15.90;99.90;;;;;;5094740;28;20027;-67
2024/01/24 12:03:46;;;;;;;9.73;5.35;;;15.90;99.90;;;;;;5094742;28;20052;-67
2024/01/24 12:06:12;;;;;;;12.60;5.85;;;15.90;99.90;;;;;;5094569;28;20023;-67
2024/01/24 12:08:38;;;;;;;11.43;5.65;;;15.90;99.90;;;;;;5094322;28;20577;-67
2024/01/24 12:11:07;;;;;;;11.85;5.60;;;16.00;99.90;;;;;;5094628;28;20024;-67
2024/01/24 12:13:33;;;;;;;13.45;5.60;;;16.00;99.90;;;;;;5094712;28;20509;-67
2024/01/24 12:16:01;;;;;;;13.40;6.25;;;16.00;99.90;;;;;;5094403;28;20036;-67
2024/01/24 12:18:29;;;;;;;13.98;6.30;;;16.00;99.90;;;;;;5090610;28;20032;-67
2024/01/24 12:20:56;;;;;;;13.00;6.47;;;16.10;99.90;;;;;;5081742;28;20063;-67
2024/01/24 12:23:22;;;;;;;14.15;6.32;;;16.10;99.90;;;;;;5078784;28;20020;-67
2024/01/24 12:25:48;;;;;;;16.80;8.80;;;16.10;99.90;;;;;;5084843;28;20032;-67
2024/01/24 12:28:14;;;;;;;14.25;7.40;;;16.10;99.90;;;;;;5082836;28;20482;-67
2024/01/24 12:30:44;;;;;;;16.30;8.10;;;16.00;99.90;;;;;;5092770;28;20494;-67
2024/01/24 12:33:13;;;;;;;20.30;10.40;;;15.90;99.90;;;;;;5093718;28;20079;-67